Urbanna, Virginia
Current Conditions -  °F | °C
As of 2:35 AM on Thursday 23 Oct 2014 (Local Time) from KW75 Reporting Station
Overcast Overcast  
Wind Chill: 54°   Ceiling: 3900
Heat Index: 54°   Visibility: 10mi
Dew Point: 46°   Wind: 10mph
Humidity: 73%   Direction: 310°NW
Pressure: 29.87"   Gusts: 24mph
Location:  37.64°N, 76.57°W
Report Text: KW75 230635Z AUTO 31009G21KT 280V360 10SM SCT027 BKN039 OVC049 12/08 A2987 RMK AO1 T01220075
Loading
Personal Weather Stations






























Interactive Weather Map New forecast layout! Learn more

10-Day Weather Forecast

Advertisements
Track Severe Weather on mobile